Avalon Airport
YMAV : rendu visible

Aérodrome :











RETROUVEZ-NOUS SUR...

 
LOGIN :

S'inscrire | Disclaimer

   EN    FR    IT 

 









Légende :    VFR   VFR Marginal   IFR   IFR Intensif   IFR Très Intensif
Visi : 
Plafond : 
>= 8 km
>= 3000ft
5 à 8 km
1000 à 3000 ft
1500m à 5 km
500 à 1000 ft
800 à 1500m
200 à 500 ft
< 800m
< 200 ft
Symboles :   Orages  Brouillard  Fortes neiges  Fortes précipitations  Vent > 20 kt






- Altitude de l'aérodrome : 35 ft
- Code IATA : AVV


YMAV - Avalon

DERNIER METAR :
  • 070300Z AUTO 21007KT 9999 // SCT019 SCT024 BKN031 10/09 Q1026

METARs EXPIRÉS :
  • 070230Z AUTO 15003KT 9999 // SCT039 OVC047 10/09 Q1026
  • 070200Z AUTO 19006KT 9999 // SCT015 SCT027 OVC033 10/09 Q1027
  • 070130Z AUTO 29002KT 9999 // SCT032 11/10 Q1027 RF00.0/000.0
  • 070115Z AUTO 00000KT 9999 // SCT005 SCT014 SCT020 10/10 Q1027
  • 070100Z AUTO 16004KT 130V200 5000 // BKN014 BKN018 BKN025 10/09 Q1027
  • 070036Z AUTO 16004KT 9999 // SCT014 BKN024 OVC032 10/09 Q1027

TAF AMD TAF YMAV
Valide du 07 à 01h jusqu'au 08 à 00h UTC


070104Z 0701/0800 16006KT 9999 -SHRA FEW020 BKN030
BECMG 0705/0707 17006KT 9999 NSW SCT035
FM071300 29005KT 9999 FEW030 INTER 0701/0703 4000 SHRA SCT005 BKN010
PROB30 0718/0723 0300 FG
FIR YMMM / Océanie



MET'MAP, la Météo Aéronautique d'un coup d'oeil ! - Copyright ORBIFLY Décembre 2007 - Disclaimer

ORBIFLY MET'MAP TEAM :

Programmation & Développement : Alexandra Zaïnal
Sur une idée originale de : Baudouin d'Aumeries
Assistance à la programmation : Marc-Olivier Méhu
Soutien technique & logistique : Manuel Goepfert

Contact : metmap@orbifly.com




SOURCES & CREDITS :

   NOAA       Earth
Advisory